首页
METAR-TAF:

METAR-TAF

机场 :

巴勒克埃西爾, 土耳其

纬度: 39-37N, 经度: 027-55E, 海拔: 101米

当前天气观测

该预报发布于25分钟前的07:50 UTC
静风
温度 14°C
湿度 94%
气压 1021 hPa
能見度: 2000
少量云层高于1000英尺
散云层高于3500英尺
多云层高于10000英尺
轻雾

METAR: LTBF 200750Z 00000KT 2000 BR FEW010 SCT035 BKN100 14/13 Q1021 NOSIG

时间: 11:15 (08:15 UTC)

预报

该预报发布于3小时和35分钟前的04:40 UTC
预报有效从20日的 06点(UTC)到 20日的 15点(UTC)
风速2节,风向多变
能見度: 2000
少量云层高于1500英尺
散云层高于3500英尺
多云层高于10000英尺
轻雾
成为
从 20日的 07点(UTC)到 20日的 09点(UTC)
能见度10公里或以上

TAF: LTBF 200440Z 2006/2015 VRB02KT 2000 BR FEW015 SCT035 BKN100 BECMG 2007/2009 9999 NSW

超过4000个机场的气象观测和天气预报(METAR&TAF报告)。

可查询的气象台以黄色和红色小点在地图上表示。

将鼠标移到小点上方,可查看气象台名称。

然后点击查看天气观测和预报。

如需切换地图:点击带黑十字的绿色按钮放大地图;点击带横线的绿色按钮缩小地图;或者点击绿色箭头查看邻近地区的地图。


METAR-TAF: